Time,TemperatureF,DewpointF,PressureIn,WindDirection,WindDirectionDegrees,WindSpeedMPH,WindSpeedGustMPH,Humidity,HourlyPrecipIn,Conditions,Clouds,dailyrainin,SoftwareType,DateUTC
2013-03-03 00:10:00,32.9,24.5,29.77,WSW,254,0.0,5.0,71,0.00,,---,0.00,VWS V14.01,2013-03-03 05:10:00,
2013-03-03 00:20:00,32.8,24.5,29.76,WSW,254,0.0,4.0,71,0.00,,---,0.00,VWS V14.01,2013-03-03 05:20:00,
2013-03-03 00:30:00,32.5,24.2,29.76,WSW,246,0.0,4.0,71,0.00,,---,0.00,VWS V14.01,2013-03-03 05:30:00,
2013-03-03 00:40:00,32.4,24.7,29.76,WSW,246,0.0,1.0,73,0.00,,---,0.00,VWS V14.01,2013-03-03 05:40:00,
2013-03-03 00:50:00,32.2,24.5,29.76,West,270,2.0,5.0,73,0.00,,---,0.00,VWS V14.01,2013-03-03 05:50:00,
2013-03-03 01:00:00,31.9,24.2,29.76,West,263,0.0,2.0,73,0.00,,---,0.00,VWS V14.01,2013-03-03 06:00:00,
2013-03-03 01:10:00,31.8,24.1,29.76,WSW,256,0.0,4.0,73,0.00,,---,0.00,VWS V14.01,2013-03-03 06:10:00,
2013-03-03 01:20:00,31.6,24.6,29.76,WSW,256,0.0,2.0,75,0.00,,---,0.00,VWS V14.01,2013-03-03 06:20:00,
2013-03-03 01:30:00,31.3,24.0,29.76,WSW,256,0.0,0.0,74,0.00,,---,0.00,VWS V14.01,2013-03-03 06:30:00,
2013-03-03 01:40:00,31.2,23.9,29.76,WSW,237,0.0,3.0,74,0.00,,---,0.00,VWS V14.01,2013-03-03 06:40:00,
2013-03-03 01:50:00,31.0,24.0,29.76,WSW,237,0.0,2.0,75,0.00,,---,0.00,VWS V14.01,2013-03-03 06:50:00,
2013-03-03 02:00:00,30.7,23.7,29.76,WSW,237,0.0,0.0,75,0.00,,---,0.00,VWS V14.01,2013-03-03 07:00:00,
2013-03-03 02:10:00,30.7,23.7,29.76,WSW,250,0.0,1.0,75,0.00,,---,0.00,VWS V14.01,2013-03-03 07:10:00,
2013-03-03 02:20:00,30.6,24.0,29.76,WSW,250,0.0,0.0,76,0.00,,---,0.00,VWS V14.01,2013-03-03 07:20:00,
2013-03-03 02:30:00,30.3,24.0,29.75,WSW,250,0.0,0.0,77,0.00,,---,0.00,VWS V14.01,2013-03-03 07:30:00,
2013-03-03 02:40:00,30.1,23.8,29.75,WSW,250,0.0,0.0,77,0.00,,---,0.00,VWS V14.01,2013-03-03 07:40:00,
2013-03-03 02:50:00,30.0,23.7,29.75,WSW,250,0.0,0.0,77,0.00,,---,0.00,VWS V14.01,2013-03-03 07:50:00,
2013-03-03 03:00:00,29.7,23.7,29.75,WSW,250,0.0,0.0,78,0.00,,---,0.00,VWS V14.01,2013-03-03 08:00:00,
2013-03-03 03:10:00,29.5,23.8,29.75,WSW,250,0.0,0.0,79,0.00,,---,0.00,VWS V14.01,2013-03-03 08:10:00,
2013-03-03 03:19:00,29.3,23.9,29.75,WSW,250,0.0,0.0,80,0.00,,---,0.00,VWS V14.01,2013-03-03 08:19:00,
2013-03-03 03:30:00,29.1,24.0,29.75,WSW,250,0.0,0.0,81,0.00,,---,0.00,VWS V14.01,2013-03-03 08:30:00,
2013-03-03 03:40:00,29.0,23.9,29.75,WSW,250,0.0,0.0,81,0.00,,---,0.00,VWS V14.01,2013-03-03 08:40:00,
2013-03-03 03:49:00,28.8,23.7,29.74,WSW,250,0.0,0.0,81,0.00,,---,0.00,VWS V14.01,2013-03-03 08:49:00,
2013-03-03 04:00:00,28.8,23.7,29.74,WSW,250,0.0,0.0,81,0.00,,---,0.00,VWS V14.01,2013-03-03 09:00:00,
2013-03-03 04:09:00,28.8,24.6,29.74,WSW,250,0.0,0.0,84,0.00,,---,0.00,VWS V14.01,2013-03-03 09:09:00,
2013-03-03 04:20:00,28.8,24.3,29.75,WSW,250,0.0,0.0,83,0.00,,---,0.00,VWS V14.01,2013-03-03 09:20:00,
2013-03-03 04:30:00,29.0,24.2,29.75,WSW,250,0.0,0.0,82,0.00,,---,0.00,VWS V14.01,2013-03-03 09:30:00,
2013-03-03 04:40:00,29.0,24.5,29.75,WSW,250,0.0,0.0,83,0.00,,---,0.00,VWS V14.01,2013-03-03 09:40:00,
2013-03-03 04:50:00,29.1,24.6,29.75,WSW,250,0.0,0.0,83,0.00,,---,0.00,VWS V14.01,2013-03-03 09:50:00,
2013-03-03 05:00:00,29.1,24.3,29.75,WSW,250,0.0,0.0,82,0.00,,---,0.00,VWS V14.01,2013-03-03 10:00:00,
2013-03-03 05:10:00,29.4,24.9,29.75,WSW,250,0.0,0.0,83,0.00,,---,0.00,VWS V14.01,2013-03-03 10:10:00,
2013-03-03 05:20:00,29.8,24.4,29.76,WSW,250,0.0,2.0,80,0.00,,---,0.00,VWS V14.01,2013-03-03 10:20:00,
2013-03-03 05:30:00,30.3,24.9,29.76,WSW,250,0.0,0.0,80,0.00,,---,0.00,VWS V14.01,2013-03-03 10:30:00,
2013-03-03 05:40:00,30.7,24.7,29.76,SW,224,0.0,3.0,78,0.00,,---,0.00,VWS V14.01,2013-03-03 10:40:00,
2013-03-03 05:49:00,30.9,24.5,29.76,WSW,254,0.0,3.0,77,0.00,,---,0.00,VWS V14.01,2013-03-03 10:49:00,
2013-03-03 06:00:00,31.0,24.6,29.76,WSW,258,0.0,2.0,77,0.00,,---,0.00,VWS V14.01,2013-03-03 11:00:00,
2013-03-03 06:09:00,31.2,24.8,29.76,WNW,282,0.0,7.0,77,0.00,,---,0.00,VWS V14.01,2013-03-03 11:09:00,
2013-03-03 06:20:00,31.2,24.8,29.76,West,261,0.0,5.0,77,0.00,,---,0.00,VWS V14.01,2013-03-03 11:20:00,
2013-03-03 06:30:00,31.2,24.8,29.76,West,263,0.0,7.0,77,0.00,,---,0.00,VWS V14.01,2013-03-03 11:30:00,
2013-03-03 06:40:00,31.2,24.8,29.76,WNW,282,0.0,5.0,77,0.00,,---,0.00,VWS V14.01,2013-03-03 11:40:00,
2013-03-03 06:49:00,31.2,24.8,29.77,West,265,0.0,4.0,77,0.00,,---,0.00,VWS V14.01,2013-03-03 11:49:00,
2013-03-03 07:00:00,31.2,24.2,29.77,WSW,251,1.0,5.0,75,0.00,,---,0.00,VWS V14.01,2013-03-03 12:00:00,
2013-03-03 07:10:00,31.2,24.8,29.77,WSW,258,0.0,5.0,77,0.00,,---,0.00,VWS V14.01,2013-03-03 12:10:00,
2013-03-03 07:20:00,31.2,24.5,29.77,West,260,2.0,3.0,76,0.00,,---,0.00,VWS V14.01,2013-03-03 12:20:00,
2013-03-03 07:30:00,31.3,24.6,29.78,WSW,256,0.0,3.0,76,0.00,,---,0.00,VWS V14.01,2013-03-03 12:30:00,
2013-03-03 07:39:00,31.5,24.8,29.78,West,268,1.0,6.0,76,0.00,,---,0.00,VWS V14.01,2013-03-03 12:39:00,
2013-03-03 07:50:00,31.8,24.8,29.78,West,278,0.0,6.0,75,0.00,,---,0.00,VWS V14.01,2013-03-03 12:50:00,
2013-03-03 08:00:00,32.5,25.5,29.79,West,261,0.0,5.0,75,0.00,,---,0.00,VWS V14.01,2013-03-03 13:00:00,
2013-03-03 08:10:00,33.4,25.7,29.79,West,265,3.0,9.0,73,0.00,,---,0.00,VWS V14.01,2013-03-03 13:10:00,
2013-03-03 08:19:00,33.8,25.4,29.79,WNW,282,4.0,6.0,71,0.00,,---,0.00,VWS V14.01,2013-03-03 13:19:00,
2013-03-03 08:30:00,34.3,25.9,29.79,SW,236,1.0,9.0,71,0.00,,---,0.00,VWS V14.01,2013-03-03 13:30:00,
2013-03-03 08:40:00,34.9,25.8,29.79,West,267,1.0,8.0,69,0.00,,---,0.00,VWS V14.01,2013-03-03 13:40:00,
2013-03-03 08:50:00,35.5,25.6,29.79,West,263,0.0,7.0,67,0.00,,---,0.00,VWS V14.01,2013-03-03 13:50:00,
2013-03-03 09:00:00,35.6,25.7,29.79,NW,311,2.0,10.0,67,0.00,,---,0.00,VWS V14.01,2013-03-03 14:00:00,
2013-03-03 09:10:00,36.5,26.2,29.79,West,278,0.0,6.0,66,0.00,,---,0.00,VWS V14.01,2013-03-03 14:10:00,
2013-03-03 09:20:00,36.8,25.8,29.79,West,275,0.0,6.0,64,0.00,,---,0.00,VWS V14.01,2013-03-03 14:20:00,
2013-03-03 09:30:00,37.2,26.5,29.79,SW,233,3.0,6.0,65,0.00,,---,0.00,VWS V14.01,2013-03-03 14:30:00,
2013-03-03 09:40:00,37.2,25.8,29.79,West,264,0.0,9.0,63,0.00,,---,0.00,VWS V14.01,2013-03-03 14:40:00,
2013-03-03 09:50:00,37.8,26.4,29.78,NW,320,2.0,6.0,63,0.00,,---,0.00,VWS V14.01,2013-03-03 14:50:00,
2013-03-03 10:00:00,38.0,26.5,29.78,West,277,0.0,6.0,63,0.00,,---,0.00,VWS V14.01,2013-03-03 15:00:00,
2013-03-03 10:10:00,38.9,26.2,29.78,NNW,343,4.0,7.0,60,0.00,,---,0.00,VWS V14.01,2013-03-03 15:10:00,
2013-03-03 10:20:00,39.1,26.4,29.78,WNW,288,0.0,7.0,60,0.00,,---,0.00,VWS V14.01,2013-03-03 15:20:00,
2013-03-03 10:30:00,39.2,26.5,29.78,WSW,241,0.0,6.0,60,0.00,,---,0.00,VWS V14.01,2013-03-03 15:30:00,
2013-03-03 10:40:00,38.6,25.9,29.78,North,356,0.0,3.0,60,0.00,,---,0.00,VWS V14.01,2013-03-03 15:40:00,
2013-03-03 10:50:00,38.9,26.6,29.77,West,261,0.0,4.0,61,0.00,,---,0.00,VWS V14.01,2013-03-03 15:50:00,
2013-03-03 11:00:00,39.5,26.4,29.77,WSW,250,0.0,5.0,59,0.00,,---,0.00,VWS V14.01,2013-03-03 16:00:00,
2013-03-03 11:09:00,39.6,26.1,29.77,WSW,258,1.0,8.0,58,0.00,,---,0.00,VWS V14.01,2013-03-03 16:09:00,
2013-03-03 11:20:00,39.6,26.5,29.77,North,359,0.0,7.0,59,0.00,,---,0.00,VWS V14.01,2013-03-03 16:20:00,
2013-03-03 11:30:00,39.3,26.6,29.77,SW,233,0.0,7.0,60,0.00,,---,0.00,VWS V14.01,2013-03-03 16:30:00,
2013-03-03 11:39:00,40.6,26.6,29.77,North,353,0.0,3.0,57,0.00,,---,0.00,VWS V14.01,2013-03-03 16:39:00,
2013-03-03 11:49:00,40.6,27.0,29.77,SW,230,2.0,7.0,58,0.00,,---,0.00,VWS V14.01,2013-03-03 16:49:00,
2013-03-03 12:00:00,41.2,26.7,29.77,WSW,257,5.0,10.0,56,0.00,,---,0.00,VWS V14.01,2013-03-03 17:00:00,
2013-03-03 12:10:00,40.1,26.5,29.77,West,261,0.0,6.0,58,0.00,,---,0.00,VWS V14.01,2013-03-03 17:10:00,
2013-03-03 12:20:00,41.2,27.1,29.76,SSW,210,1.0,7.0,57,0.00,,---,0.00,VWS V14.01,2013-03-03 17:20:00,
2013-03-03 12:30:00,41.2,26.3,29.75,WSW,248,2.0,7.0,55,0.00,,---,0.00,VWS V14.01,2013-03-03 17:30:00,
2013-03-03 12:40:00,41.6,27.1,29.75,NW,322,0.0,7.0,56,0.00,,---,0.00,VWS V14.01,2013-03-03 17:40:00,
2013-03-03 12:50:00,41.5,27.0,29.75,WNW,287,0.0,4.0,56,0.00,,---,0.00,VWS V14.01,2013-03-03 17:50:00,
2013-03-03 12:59:00,42.9,27.9,29.74,SSW,209,0.0,7.0,55,0.00,,---,0.00,VWS V14.01,2013-03-03 17:59:00,
2013-03-03 13:10:00,43.1,27.6,29.74,WSW,243,5.0,6.0,54,0.00,,---,0.00,VWS V14.01,2013-03-03 18:10:00,
2013-03-03 13:20:00,43.2,28.1,29.73,NW,322,2.0,5.0,55,0.00,,---,0.00,VWS V14.01,2013-03-03 18:20:00,
2013-03-03 13:30:00,43.6,27.6,29.72,West,261,3.0,11.0,53,0.00,,---,0.00,VWS V14.01,2013-03-03 18:30:00,
2013-03-03 13:39:00,43.3,27.3,29.72,NNW,337,0.0,7.0,53,0.00,,---,0.00,VWS V14.01,2013-03-03 18:39:00,
2013-03-03 13:50:00,44.1,27.6,29.71,West,265,1.0,7.0,52,0.00,,---,0.00,VWS V14.01,2013-03-03 18:50:00,
2013-03-03 14:00:00,43.8,27.8,29.71,NW,313,3.0,5.0,53,0.00,,---,0.00,VWS V14.01,2013-03-03 19:00:00,
2013-03-03 14:10:00,45.1,29.0,29.71,SW,232,3.0,7.0,53,0.00,,---,0.00,VWS V14.01,2013-03-03 19:10:00,
2013-03-03 14:20:00,45.4,28.8,29.70,SW,219,5.0,8.0,52,0.00,,---,0.00,VWS V14.01,2013-03-03 19:20:00,
2013-03-03 14:30:00,45.4,28.8,29.70,West,275,0.0,6.0,52,0.00,,---,0.00,VWS V14.01,2013-03-03 19:30:00,
2013-03-03 14:39:00,46.5,28.4,29.70,WSW,244,0.0,3.0,49,0.00,,---,0.00,VWS V14.01,2013-03-03 19:39:00,
2013-03-03 14:49:00,45.4,28.4,29.70,West,270,3.0,8.0,51,0.00,,---,0.00,VWS V14.01,2013-03-03 19:49:00,
2013-03-03 15:00:00,45.4,28.4,29.70,WNW,288,0.0,7.0,51,0.00,,---,0.00,VWS V14.01,2013-03-03 20:00:00,
2013-03-03 15:09:00,44.6,28.1,29.70,WNW,302,0.0,11.0,52,0.00,,---,0.00,VWS V14.01,2013-03-03 20:09:00,
2013-03-03 15:19:00,44.9,27.9,29.70,WNW,299,3.0,10.0,51,0.00,,---,0.00,VWS V14.01,2013-03-03 20:19:00,
2013-03-03 15:30:00,45.7,29.1,29.70,South,191,0.0,8.0,52,0.00,,---,0.00,VWS V14.01,2013-03-03 20:30:00,
2013-03-03 15:40:00,45.8,28.7,29.70,West,261,0.0,6.0,51,0.00,,---,0.00,VWS V14.01,2013-03-03 20:40:00,
2013-03-03 15:50:00,45.8,28.7,29.70,West,263,0.0,4.0,51,0.00,,---,0.00,VWS V14.01,2013-03-03 20:50:00,
2013-03-03 16:00:00,45.7,29.1,29.70,West,263,2.0,10.0,52,0.00,,---,0.00,VWS V14.01,2013-03-03 21:00:00,
2013-03-03 16:10:00,45.4,28.4,29.70,NW,308,3.0,7.0,51,0.00,,---,0.00,VWS V14.01,2013-03-03 21:10:00,
2013-03-03 16:19:00,45.4,27.9,29.70,West,280,6.0,9.0,50,0.00,,---,0.00,VWS V14.01,2013-03-03 21:19:00,
2013-03-03 16:29:00,45.4,28.8,29.70,West,268,0.0,7.0,52,0.00,,---,0.00,VWS V14.01,2013-03-03 21:29:00,
2013-03-03 16:40:00,45.4,28.4,29.70,West,275,3.0,5.0,51,0.00,,---,0.00,VWS V14.01,2013-03-03 21:40:00,
2013-03-03 16:49:00,44.8,26.8,29.70,SW,232,0.0,12.0,49,0.00,,---,0.00,VWS V14.01,2013-03-03 21:49:00,
2013-03-03 17:00:00,44.6,27.1,29.70,WSW,244,3.0,7.0,50,0.00,,---,0.00,VWS V14.01,2013-03-03 22:00:00,
2013-03-03 17:09:00,44.3,27.3,29.70,West,277,0.0,6.0,51,0.00,,---,0.00,VWS V14.01,2013-03-03 22:09:00,
2013-03-03 17:20:00,44.1,28.1,29.70,SW,227,1.0,6.0,53,0.00,,---,0.00,VWS V14.01,2013-03-03 22:20:00,
2013-03-03 17:29:00,43.8,28.2,29.71,West,263,5.0,10.0,54,0.00,,---,0.00,VWS V14.01,2013-03-03 22:29:00,
2013-03-03 17:40:00,43.1,27.1,29.71,WSW,250,2.0,9.0,53,0.00,,---,0.00,VWS V14.01,2013-03-03 22:40:00,
2013-03-03 17:49:00,42.6,27.1,29.72,WSW,258,2.0,8.0,54,0.00,,---,0.00,VWS V14.01,2013-03-03 22:49:00,
2013-03-03 17:59:00,42.2,27.2,29.73,WSW,251,0.0,6.0,55,0.00,,---,0.00,VWS V14.01,2013-03-03 22:59:00,
2013-03-03 18:10:00,41.9,27.8,29.73,West,274,2.0,6.0,57,0.00,,---,0.00,VWS V14.01,2013-03-03 23:10:00,
2013-03-03 18:20:00,41.3,27.6,29.74,West,268,6.0,11.0,58,0.00,,---,0.00,VWS V14.01,2013-03-03 23:20:00,
2013-03-03 18:30:00,40.9,27.3,29.74,WSW,256,2.0,7.0,58,0.00,,---,0.00,VWS V14.01,2013-03-03 23:30:00,
2013-03-03 18:39:00,40.5,27.3,29.74,WSW,246,5.0,9.0,59,0.00,,---,0.00,VWS V14.01,2013-03-03 23:39:00,
2013-03-03 18:50:00,40.2,27.0,29.75,West,263,0.0,10.0,59,0.00,,---,0.00,VWS V14.01,2013-03-03 23:50:00,
2013-03-03 19:00:00,39.8,27.5,29.76,WNW,295,2.0,6.0,61,0.00,,---,0.00,VWS V14.01,2013-03-04 00:00:00,
2013-03-03 19:10:00,39.3,27.0,29.76,West,275,2.0,3.0,61,0.00,,---,0.00,VWS V14.01,2013-03-04 00:10:00,
2013-03-03 19:20:00,38.9,27.4,29.77,West,270,0.0,3.0,63,0.00,,---,0.00,VWS V14.01,2013-03-04 00:20:00,
2013-03-03 19:29:00,38.2,26.7,29.78,West,271,3.0,7.0,63,0.00,,---,0.00,VWS V14.01,2013-03-04 00:29:00,
2013-03-03 19:39:00,37.6,26.5,29.78,WSW,240,0.0,8.0,64,0.00,,---,0.00,VWS V14.01,2013-03-04 00:39:00,
2013-03-03 19:50:00,37.2,26.2,29.78,WSW,258,3.0,8.0,64,0.00,,---,0.00,VWS V14.01,2013-03-04 00:50:00,
2013-03-03 20:00:00,36.8,25.8,29.79,West,268,2.0,7.0,64,0.00,,---,0.00,VWS V14.01,2013-03-04 01:00:00,
2013-03-03 20:09:00,36.5,25.9,29.79,West,260,3.0,7.0,65,0.00,,---,0.00,VWS V14.01,2013-03-04 01:09:00,
2013-03-03 20:20:00,36.0,25.0,29.79,West,272,5.0,10.0,64,0.00,,---,0.00,VWS V14.01,2013-03-04 01:20:00,
2013-03-03 20:30:00,35.8,24.5,29.80,West,264,3.0,9.0,63,0.00,,---,0.00,VWS V14.01,2013-03-04 01:30:00,
2013-03-03 20:39:00,35.5,24.5,29.80,NNW,340,6.0,10.0,64,0.00,,---,0.00,VWS V14.01,2013-03-04 01:39:00,
2013-03-03 20:49:00,35.2,24.3,29.81,WSW,246,0.0,8.0,64,0.00,,---,0.00,VWS V14.01,2013-03-04 01:49:00,
2013-03-03 20:59:00,34.9,24.3,29.81,NW,308,0.0,5.0,65,0.00,,---,0.00,VWS V14.01,2013-03-04 01:59:00,
2013-03-03 21:10:00,34.6,23.7,29.81,WSW,239,7.0,7.0,64,0.00,,---,0.00,VWS V14.01,2013-03-04 02:10:00,
2013-03-03 21:20:00,34.6,24.1,29.82,WNW,282,0.0,7.0,65,0.00,,---,0.00,VWS V14.01,2013-03-04 02:20:00,
2013-03-03 21:30:00,34.3,23.8,29.82,West,270,0.0,3.0,65,0.00,,---,0.00,VWS V14.01,2013-03-04 02:30:00,
2013-03-03 21:39:00,34.1,23.6,29.82,WNW,299,3.0,6.0,65,0.00,,---,0.00,VWS V14.01,2013-03-04 02:39:00,
2013-03-03 21:49:00,33.8,23.3,29.82,West,270,0.0,11.0,65,0.00,,---,0.00,VWS V14.01,2013-03-04 02:49:00,
2013-03-03 22:00:00,33.7,23.6,29.83,West,270,0.0,7.0,66,0.00,,---,0.00,VWS V14.01,2013-03-04 03:00:00,
2013-03-03 22:09:00,33.4,23.3,29.83,WNW,302,2.0,6.0,66,0.00,,---,0.00,VWS V14.01,2013-03-04 03:09:00,
2013-03-03 22:20:00,33.1,23.0,29.83,West,261,0.0,7.0,66,0.00,,---,0.00,VWS V14.01,2013-03-04 03:20:00,
2013-03-03 22:29:00,32.9,22.8,29.83,West,281,0.0,10.0,66,0.00,,---,0.00,VWS V14.01,2013-03-04 03:29:00,
2013-03-03 22:40:00,32.8,22.7,29.83,WNW,291,7.0,7.0,66,0.00,,---,0.00,VWS V14.01,2013-03-04 03:40:00,
2013-03-03 22:49:00,32.5,22.4,29.83,NW,325,2.0,12.0,66,0.00,,---,0.00,VWS V14.01,2013-03-04 03:49:00,
2013-03-03 23:00:00,32.4,22.7,29.83,West,265,0.0,8.0,67,0.00,,---,0.00,VWS V14.01,2013-03-04 04:00:00,
2013-03-03 23:09:00,32.1,22.4,29.83,West,260,2.0,6.0,67,0.00,,---,0.00,VWS V14.01,2013-03-04 04:09:00,
2013-03-03 23:20:00,31.8,22.1,29.82,West,274,0.0,5.0,67,0.00,,---,0.00,VWS V14.01,2013-03-04 04:20:00,
2013-03-03 23:30:00,31.6,22.6,29.83,West,271,0.0,3.0,69,0.00,,---,0.00,VWS V14.01,2013-03-04 04:30:00,
2013-03-03 23:39:00,31.3,22.3,29.83,WSW,244,0.0,3.0,69,0.00,,---,0.00,VWS V14.01,2013-03-04 04:39:00,
2013-03-03 23:49:00,31.3,22.0,29.83,West,267,0.0,2.0,68,0.00,,---,0.00,VWS V14.01,2013-03-04 04:49:00,